createdAt,value
2023-03-01T00:02:52.705Z,11.15
2023-03-01T00:07:54.891Z,12.30
2023-03-01T00:12:57.514Z,10.77
2023-03-01T00:17:59.282Z,11.48
2023-03-01T00:23:01.051Z,11.57
2023-03-01T00:28:02.822Z,11.52
2023-03-01T00:33:05.047Z,11.60
2023-03-01T00:38:07.239Z,11.40
2023-03-01T00:43:09.687Z,11.73
2023-03-01T00:48:11.453Z,12.18
2023-03-01T00:53:13.843Z,13.00
2023-03-01T00:58:15.632Z,11.13
2023-03-01T01:03:17.441Z,11.27
2023-03-01T01:08:20.300Z,10.90
2023-03-01T01:13:22.735Z,11.27
2023-03-01T01:18:24.602Z,12.10
2023-03-01T01:23:26.415Z,11.57
2023-03-01T01:28:28.205Z,11.27
2023-03-01T01:33:30.055Z,11.35
2023-03-01T01:38:32.160Z,11.45
2023-03-01T01:43:41.920Z,11.07
2023-03-01T01:48:50.036Z,8.47
2023-03-01T01:53:57.677Z,11.25
2023-03-01T01:58:59.839Z,11.35
2023-03-01T02:04:01.946Z,10.45
2023-03-01T02:09:08.697Z,10.40
2023-03-01T02:14:10.696Z,10.70
2023-03-01T02:19:27.144Z,10.25
2023-03-01T02:25:02.843Z,9.35
2023-03-01T02:30:05.614Z,9.70
2023-03-01T02:35:08.350Z,10.10
2023-03-01T02:40:14.732Z,9.73
2023-03-01T02:45:16.731Z,9.43
2023-03-01T02:50:30.617Z,9.15
2023-03-01T02:55:32.466Z,9.25
2023-03-01T03:00:41.108Z,9.45
2023-03-01T03:05:43.202Z,10.75
2023-03-01T03:10:44.949Z,9.85
2023-03-01T03:15:46.887Z,11.13
2023-03-01T03:20:48.892Z,10.70
2023-03-01T03:25:51.778Z,10.82
2023-03-01T03:30:53.613Z,10.70
2023-03-01T03:35:55.594Z,10.27
2023-03-01T03:41:06.613Z,9.95
2023-03-01T03:46:08.604Z,10.57
2023-03-01T03:51:16.281Z,9.43
2023-03-01T03:56:18.161Z,9.98
2023-03-01T04:01:20.076Z,11.02
2023-03-01T04:06:21.975Z,8.90
2023-03-01T04:11:29.603Z,9.30
2023-03-01T04:16:31.654Z,9.15
2023-03-01T04:21:33.715Z,9.63
2023-03-01T04:26:35.550Z,9.93
2023-03-01T04:31:37.480Z,8.63
2023-03-01T04:36:41.039Z,9.45
2023-03-01T04:41:44.246Z,10.02
2023-03-01T04:46:46.049Z,9.52
2023-03-01T04:51:47.833Z,9.45
2023-03-01T04:56:49.626Z,9.63
2023-03-01T05:01:52.476Z,9.05
2023-03-01T05:06:54.706Z,8.70
2023-03-01T05:11:56.441Z,8.30
2023-03-01T05:17:04.900Z,9.35
2023-03-01T05:22:06.754Z,8.10
2023-03-01T05:27:08.985Z,8.98
2023-03-01T05:32:15.668Z,9.02
2023-03-01T05:37:17.773Z,9.57
2023-03-01T05:42:19.831Z,8.20
2023-03-01T05:47:22.241Z,9.10
2023-03-01T05:52:24.098Z,9.50
2023-03-01T05:57:26.868Z,10.07
2023-03-01T06:02:28.630Z,9.70
2023-03-01T06:07:30.428Z,9.85
2023-03-01T06:12:37.645Z,10.48
2023-03-01T06:17:41.576Z,10.20
2023-03-01T06:22:44.434Z,9.15
2023-03-01T06:27:46.912Z,9.63
2023-03-01T06:32:49.583Z,10.25
2023-03-01T06:37:51.650Z,10.20
2023-03-01T06:42:53.778Z,10.45
2023-03-01T06:48:04.521Z,11.70
2023-03-01T06:53:06.318Z,10.70
2023-03-01T06:58:08.123Z,9.95
2023-03-01T07:03:10.086Z,11.52
2023-03-01T07:08:12.047Z,9.80
2023-03-01T07:13:13.923Z,9.55
2023-03-01T07:18:15.803Z,10.73
2023-03-01T07:23:17.677Z,10.40
2023-03-01T07:28:19.622Z,9.20
2023-03-01T07:33:21.965Z,9.93
2023-03-01T07:38:24.052Z,9.90
2023-03-01T07:43:26.004Z,9.88
2023-03-01T07:48:28.189Z,8.82
2023-03-01T07:53:32.257Z,9.73
2023-03-01T07:58:38.388Z,9.20
2023-03-01T08:03:40.194Z,9.05
2023-03-01T08:08:42.137Z,9.38
2023-03-01T08:13:44.540Z,10.02
2023-03-01T08:18:46.485Z,9.93
2023-03-01T08:23:48.323Z,9.25
2023-03-01T08:28:51.219Z,9.68
2023-03-01T08:33:56.653Z,9.65
2023-03-01T08:38:59.014Z,9.77
2023-03-01T08:44:00.812Z,9.85
2023-03-01T08:49:08.548Z,9.75
2023-03-01T08:54:15.981Z,10.23
2023-03-01T08:59:18.883Z,9.25
2023-03-01T09:04:20.683Z,9.75
2023-03-01T09:09:22.488Z,10.05
2023-03-01T09:14:24.368Z,10.32
2023-03-01T09:19:27.413Z,10.05
2023-03-01T09:24:29.325Z,8.80
2023-03-01T09:29:31.218Z,11.38
2023-03-01T09:34:52.974Z,9.80
2023-03-01T09:39:54.816Z,10.32
2023-03-01T09:45:06.144Z,10.77
2023-03-01T09:50:20.982Z,9.95
2023-03-01T09:55:35.062Z,9.77
2023-03-01T10:00:44.726Z,9.00
2023-03-01T10:06:05.041Z,10.13
2023-03-01T10:11:33.798Z,8.02
2023-03-01T10:16:51.304Z,10.02
2023-03-01T10:21:53.968Z,9.68
2023-03-01T10:27:05.676Z,9.77
2023-03-01T10:32:07.837Z,9.27
2023-03-01T10:37:13.859Z,10.23
2023-03-01T10:42:29.245Z,10.02
2023-03-01T10:47:31.048Z,8.90
2023-03-01T10:52:42.210Z,9.02
2023-03-01T11:02:50.080Z,9.38
2023-03-01T11:08:01.446Z,9.15
2023-03-01T11:13:17.452Z,9.45
2023-03-01T11:18:34.064Z,9.45
2023-03-01T11:23:46.033Z,9.32
2023-03-01T11:28:59.026Z,9.40
2023-03-01T11:34:15.837Z,9.43
2023-03-01T11:39:40.800Z,8.48
2023-03-01T11:44:44.263Z,9.68
2023-03-01T11:50:16.797Z,9.10
2023-03-01T11:55:43.816Z,8.88
2023-03-01T12:01:24.689Z,8.52
2023-03-01T12:11:37.816Z,8.93
2023-03-01T12:16:51.852Z,8.63
2023-03-01T12:22:13.503Z,8.70
2023-03-01T12:27:39.520Z,8.35
2023-03-01T12:33:02.186Z,8.27
2023-03-01T12:38:10.417Z,8.98
2023-03-01T12:43:18.756Z,8.32
2023-03-01T12:48:23.214Z,9.45
2023-03-01T12:53:26.970Z,9.02
2023-03-01T12:58:49.600Z,8.05
2023-03-01T13:04:07.381Z,8.07
2023-03-01T13:09:38.522Z,8.43
2023-03-01T13:14:46.310Z,8.73
2023-03-01T13:19:59.013Z,9.07
2023-03-01T13:25:20.840Z,8.77
2023-03-01T13:30:34.590Z,7.93
2023-03-01T13:35:44.941Z,7.70
2023-03-01T13:40:52.661Z,9.13
2023-03-01T13:45:55.402Z,7.93
2023-03-01T13:51:04.365Z,7.78
2023-03-01T13:56:20.663Z,8.65
2023-03-01T14:01:34.975Z,8.38
2023-03-01T14:06:37.335Z,8.38
2023-03-01T14:11:51.388Z,8.15
2023-03-01T14:17:21.092Z,7.43
2023-03-01T14:22:33.016Z,7.13
2023-03-01T14:27:40.456Z,6.82
2023-03-01T14:32:42.377Z,7.35
2023-03-01T14:37:44.124Z,7.80
2023-03-01T14:42:45.924Z,6.93
2023-03-01T14:47:48.435Z,7.25
2023-03-01T14:52:52.963Z,6.82
2023-03-01T14:57:55.065Z,7.20
2023-03-01T15:03:02.436Z,6.70
2023-03-01T15:08:05.681Z,6.70
2023-03-01T15:13:25.362Z,6.88
2023-03-01T15:18:29.765Z,6.55
2023-03-01T15:23:31.826Z,6.03
2023-03-01T15:28:38.803Z,6.22
2023-03-01T15:33:47.976Z,6.90
2023-03-01T15:38:55.545Z,6.78
2023-03-01T15:43:57.893Z,6.15
2023-03-01T15:49:02.971Z,6.35
2023-03-01T15:54:19.668Z,7.30
2023-03-01T15:59:23.290Z,6.82
2023-03-01T16:04:25.209Z,5.60
2023-03-01T16:09:27.739Z,5.93
2023-03-01T16:14:29.584Z,7.13
2023-03-01T16:19:31.326Z,6.25
2023-03-01T16:24:33.235Z,6.38
2023-03-01T16:29:35.037Z,5.97
2023-03-01T16:34:36.823Z,6.00
2023-03-01T16:39:39.590Z,6.22
2023-03-01T16:44:41.357Z,6.43
2023-03-01T16:49:43.235Z,6.40
2023-03-01T16:54:45.038Z,6.90
2023-03-01T16:59:46.804Z,5.65
2023-03-01T17:04:56.216Z,6.03
2023-03-01T17:09:58.055Z,7.35
2023-03-01T17:14:59.850Z,6.40
2023-03-01T17:20:04.526Z,6.30
2023-03-01T17:25:10.459Z,6.45
2023-03-01T17:30:14.681Z,7.22
2023-03-01T17:35:16.776Z,6.72
2023-03-01T17:40:18.754Z,7.15
2023-03-01T17:45:20.519Z,6.53
2023-03-01T17:50:22.499Z,6.25
2023-03-01T17:55:24.762Z,7.55
2023-03-01T18:00:26.628Z,6.70
2023-03-01T18:05:31.689Z,6.45
2023-03-01T18:10:36.526Z,6.68
2023-03-01T18:15:38.313Z,7.68
2023-03-01T18:20:40.112Z,7.03
2023-03-01T18:25:41.888Z,6.65
2023-03-01T18:30:43.726Z,8.13
2023-03-01T18:35:45.544Z,8.05
2023-03-01T18:40:47.624Z,8.52
2023-03-01T18:45:50.101Z,9.00
2023-03-01T18:50:52.136Z,8.18
2023-03-01T18:55:59.854Z,8.85
2023-03-01T19:01:04.302Z,8.68
2023-03-01T19:06:06.292Z,8.43
2023-03-01T19:11:09.776Z,8.80
2023-03-01T19:16:15.211Z,7.63
2023-03-01T19:21:19.130Z,8.30
2023-03-01T19:26:23.618Z,8.52
2023-03-01T19:31:29.088Z,8.98
2023-03-01T19:36:34.909Z,8.23
2023-03-01T19:41:36.931Z,8.40
2023-03-01T19:46:38.843Z,8.68
2023-03-01T19:51:40.770Z,9.52
2023-03-01T19:56:42.703Z,8.48
2023-03-01T20:01:44.536Z,9.25
2023-03-01T20:06:47.855Z,9.48
2023-03-01T20:11:50.963Z,9.35
2023-03-01T20:16:53.057Z,10.52
2023-03-01T20:21:54.845Z,10.73
2023-03-01T20:26:56.698Z,10.07
2023-03-01T20:31:58.924Z,10.85
2023-03-01T20:37:00.911Z,11.15
2023-03-01T20:42:02.728Z,10.18
2023-03-01T20:47:04.560Z,10.02
2023-03-01T20:52:06.917Z,10.30
2023-03-01T20:57:08.867Z,9.55
2023-03-01T21:02:11.544Z,9.35
2023-03-01T21:07:13.389Z,9.35
2023-03-01T21:12:15.262Z,10.60
2023-03-01T21:17:17.831Z,9.07
2023-03-01T21:22:19.678Z,9.77
2023-03-01T21:27:21.466Z,9.75
2023-03-01T21:32:23.476Z,10.23
2023-03-01T21:37:28.390Z,10.13
2023-03-01T21:42:31.977Z,11.15
2023-03-01T21:47:33.777Z,10.43
2023-03-01T21:52:35.602Z,10.82
2023-03-01T21:57:43.601Z,10.73
2023-03-01T22:02:45.572Z,10.73
2023-03-01T22:07:47.407Z,10.57
2023-03-01T22:12:49.533Z,10.55
2023-03-01T22:17:51.411Z,10.70
2023-03-01T22:22:53.180Z,10.38
2023-03-01T22:27:55.133Z,10.27
2023-03-01T22:32:56.988Z,10.45
2023-03-01T22:37:58.844Z,10.73
2023-03-01T22:43:00.931Z,10.68
2023-03-01T22:48:04.874Z,10.68
2023-03-01T22:53:06.659Z,10.70
2023-03-01T22:58:08.752Z,10.75
2023-03-01T23:03:10.798Z,10.15
2023-03-01T23:08:13.469Z,10.35
2023-03-01T23:13:15.214Z,12.25
2023-03-01T23:18:16.988Z,11.60
2023-03-01T23:23:18.794Z,12.38
2023-03-01T23:28:20.639Z,11.30
2023-03-01T23:33:22.442Z,10.88
2023-03-01T23:38:24.318Z,11.43
2023-03-01T23:43:26.086Z,11.55
2023-03-01T23:48:27.966Z,11.20
2023-03-01T23:53:29.855Z,10.57
2023-03-01T23:58:31.893Z,12.25
